x

Long Key, Fl (lonf1) Weather Station

4:00am - Fri 18th Apr 2014 All times are CDT. -4 hours from GMT.

  • Wind
    14mph, 16mph gusts
  • Sea Temp 80°f
  • Air Temp 79°f
  • Sea Pressure 1016.9mb
  • Long Key, Fl
  • Long Key, Fl

More Historic Weather Station data

Upgrade to MSW Pro to gain access to the past 30 days of data for over 8000 Wavebouys and Weather Stations around the globe.

Join Pro

Comparision Forecast

View Surf forecast
   
Fri 04/18 4:00am 14 16 mph 1016.9mb 80f 79f
3:00am 18 21 mph 1017.2mb 81f 79f
2:00am 17 20 mph 1017.6mb 81f 79f
1:00am 18 21 mph 1018.1mb 81f 79f
12:00am 16 18 mph 1019mb 81f 78f
Thu 04/17 11:00pm 29 36 mph 1018.9mb 81f 76f
10:00pm 23 25 mph 1018.7mb 82f 79f
9:00pm 21 22 mph 1018.3mb 82f 79f
8:00pm 23 24 mph 1017.6mb 82f 80f
7:00pm 20 22 mph 1017.8mb 82f 80f
6:00pm 17 21 mph 1017.9mb 82f 80f
5:00pm 20 21 mph 1017.8mb 82f 80f
4:00pm 15 16 mph 1018mb 82f 80f
3:00pm 15 17 mph 1018.9mb 82f 80f
2:00pm 14 15 mph 1019.5mb 82f 80f
1:00pm 13 14 mph 1020mb 81f 80f
12:00pm 11 14 mph 1020.4mb 80f 80f
11:00am 11
mph
1020.4mb 80f 80f
10:00am 11 13 mph 1019.5mb 80f 79f
9:00am 11 13 mph 1019.1mb 80f 78f
8:00am 10 11 mph 1019mb 80f 78f
7:00am 13 14 mph 1018.2mb 80f 78f
6:00am 15 17 mph 1017.6mb 80f 78f
5:00am 13 15 mph 1017.2mb 80f 78f
4:00am 16 17 mph 1017.1mb 80f 78f
3:00am 17 18 mph 1017.6mb 80f 78f
2:00am 18 21 mph 1017.9mb 80f 78f
1:00am 18 20 mph 1018.2mb 80f 78f
12:00am 17 21 mph 1018.3mb 81f 78f
Wed 04/16 11:00pm 18 21 mph 1018.9mb 81f 78f
10:00pm 18 21 mph 1018.3mb 81f 78f
9:00pm 21 23 mph 1017.4mb 81f 78f
8:00pm 20 22 mph 1017mb 81f 78f
7:00pm 17 18 mph 1016.2mb 82f 78f
6:00pm 16 17 mph 1016mb 82f 79f
5:00pm 11 13 mph 1016.1mb 82f 79f
4:00pm 11 14 mph 1016.3mb 82f 79f
3:00pm 8 9 mph 1016.9mb 82f 80f
2:00pm 11 13 mph 1017.5mb 82f 78f
1:00pm 11 13 mph 1017.6mb 81f 77f
12:00pm 14 15 mph 1017.7mb 81f 75f
11:00am 13 15 mph 1017.9mb 81f 74f
10:00am 14 16 mph 1017.2mb 80f 74f
9:00am 14 16 mph 1016.6mb 80f 74f
8:00am 16 17 mph 1016.1mb 80f 75f
7:00am 16 17 mph 1015.4mb 81f 76f
6:00am 15 16 mph 1014.9mb 81f 77f
5:00am 7 8 mph 1014.4mb 81f 78f
4:00am 7 8 mph 1014.5mb 81f 78f
3:00am 9
mph
1014.6mb 81f 78f
2:00am 5 6 mph 1015.1mb 82f 79f
1:00am 3 5 mph 1014.8mb 82f 79f
12:00am 2
mph
1014.8mb 82f 79f
Tue 04/15 11:00pm 6 7 mph 1014.7mb 82f 79f
10:00pm 7 8 mph 1014.9mb 82f 79f
9:00pm 9 10 mph 1014.4mb 82f 79f
8:00pm 14 16 mph 1013.6mb 82f 80f
7:00pm 10
mph
1012.8mb 82f 80f
6:00pm 9 10 mph 1012.8mb 82f 80f
5:00pm 8 9 mph 1012.9mb 82f 80f
4:00pm 11 14 mph 1013.1mb 82f 80f
3:00pm 15 16 mph 1013.6mb 82f 80f
2:00pm 16 17 mph 1014mb 82f 80f
1:00pm 14 15 mph 1014.4mb 81f 80f
12:00pm 15 17 mph 1014.7mb 80f 80f
11:00am 16 18 mph 1014.9mb 80f 80f
10:00am 15 16 mph 1014.6mb 80f 80f
9:00am 16 18 mph 1014.1mb 80f 79f
8:00am 14 15 mph 1014.1mb 79f 79f
7:00am 13 16 mph 1013.7mb 79f 79f
6:00am 13 14 mph 1013.4mb 79f 78f
5:00am 11 14 mph 1013.2mb 80f 78f
4:00am 14 15 mph 1013mb 80f 78f
3:00am 15 17 mph 1013mb 80f 78f
2:00am 15 17 mph 1013.2mb 80f 78f
1:00am 14 16 mph 1013.6mb 80f 78f
12:00am 16 17 mph 1013.8mb 81f 78f
Mon 04/14 11:00pm 14 15 mph 1014mb 81f 78f
10:00pm 14 15 mph 1014.2mb 81f 78f
9:00pm 11 13 mph 1014.1mb 81f 78f
8:00pm 14 15 mph 1013.6mb 81f 78f
7:00pm 13 14 mph 1013.6mb 81f 79f
6:00pm 10 11 mph 1014mb 81f 80f
5:00pm 9 10 mph 1014mb 81f 80f
4:00pm 9 10 mph 1014.6mb 81f 80f
3:00pm 11 14 mph 1015.3mb 80f 79f
2:00pm 11 13 mph 1015.7mb 80f 80f
1:00pm 11 13 mph 1016mb 79f 79f
12:00pm 11 13 mph 1016.3mb 79f 79f
11:00am 11 13 mph 1016.7mb 78f 79f
10:00am 13 14 mph 1016.3mb 78f 79f